sensor_id;sensor_type;location;lat;lon;timestamp;P1;durP1;ratioP1;P2;durP2;ratioP2
15287;SDS011;7745;48.708;9.026;2023-04-03T00:00:52;4.43;;;3.03;;
15287;SDS011;7745;48.708;9.026;2023-04-03T00:03:21;3.47;;;2.90;;
15287;SDS011;7745;48.708;9.026;2023-04-03T00:05:48;3.40;;;3.10;;
15287;SDS011;7745;48.708;9.026;2023-04-03T00:08:15;3.90;;;3.00;;
15287;SDS011;7745;48.708;9.026;2023-04-03T00:10:42;3.83;;;3.40;;
15287;SDS011;7745;48.708;9.026;2023-04-03T00:13:09;5.40;;;3.00;;
15287;SDS011;7745;48.708;9.026;2023-04-03T00:15:36;4.27;;;3.17;;
15287;SDS011;7745;48.708;9.026;2023-04-03T00:18:04;4.90;;;2.90;;
15287;SDS011;7745;48.708;9.026;2023-04-03T00:20:33;4.07;;;3.10;;
15287;SDS011;7745;48.708;9.026;2023-04-03T00:23:00;3.67;;;3.27;;
15287;SDS011;7745;48.708;9.026;2023-04-03T00:25:27;4.13;;;3.10;;
15287;SDS011;7745;48.708;9.026;2023-04-03T00:27:57;4.70;;;3.37;;
15287;SDS011;7745;48.708;9.026;2023-04-03T00:30:24;3.93;;;3.27;;
15287;SDS011;7745;48.708;9.026;2023-04-03T00:32:51;3.40;;;3.10;;
15287;SDS011;7745;48.708;9.026;2023-04-03T00:35:19;4.93;;;3.30;;
15287;SDS011;7745;48.708;9.026;2023-04-03T00:37:50;6.43;;;3.30;;
15287;SDS011;7745;48.708;9.026;2023-04-03T00:40:18;4.60;;;3.30;;
15287;SDS011;7745;48.708;9.026;2023-04-03T00:42:46;3.33;;;3.03;;
15287;SDS011;7745;48.708;9.026;2023-04-03T00:45:28;5.33;;;3.40;;
15287;SDS011;7745;48.708;9.026;2023-04-03T00:47:58;4.27;;;3.63;;
15287;SDS011;7745;48.708;9.026;2023-04-03T00:50:28;3.83;;;3.23;;
15287;SDS011;7745;48.708;9.026;2023-04-03T00:52:57;4.60;;;3.33;;
15287;SDS011;7745;48.708;9.026;2023-04-03T00:55:24;4.30;;;2.93;;
15287;SDS011;7745;48.708;9.026;2023-04-03T00:57:51;5.73;;;3.37;;
15287;SDS011;7745;48.708;9.026;2023-04-03T01:00:19;5.00;;;4.03;;
15287;SDS011;7745;48.708;9.026;2023-04-03T01:02:48;4.27;;;3.50;;
15287;SDS011;7745;48.708;9.026;2023-04-03T01:05:16;4.40;;;3.57;;
15287;SDS011;7745;48.708;9.026;2023-04-03T01:07:43;3.77;;;3.00;;
15287;SDS011;7745;48.708;9.026;2023-04-03T01:10:14;6.37;;;3.50;;
15287;SDS011;7745;48.708;9.026;2023-04-03T01:12:42;5.40;;;4.00;;
15287;SDS011;7745;48.708;9.026;2023-04-03T01:15:11;5.20;;;3.30;;
15287;SDS011;7745;48.708;9.026;2023-04-03T01:17:40;3.80;;;3.30;;
15287;SDS011;7745;48.708;9.026;2023-04-03T01:20:15;3.90;;;3.10;;
15287;SDS011;7745;48.708;9.026;2023-04-03T01:23:03;4.50;;;2.93;;
15287;SDS011;7745;48.708;9.026;2023-04-03T01:25:41;4.13;;;3.00;;
15287;SDS011;7745;48.708;9.026;2023-04-03T01:28:10;7.83;;;3.50;;
15287;SDS011;7745;48.708;9.026;2023-04-03T01:30:42;5.13;;;3.53;;
15287;SDS011;7745;48.708;9.026;2023-04-03T01:33:14;4.87;;;3.10;;
15287;SDS011;7745;48.708;9.026;2023-04-03T01:35:41;5.57;;;3.20;;
15287;SDS011;7745;48.708;9.026;2023-04-03T01:38:08;6.10;;;3.13;;
15287;SDS011;7745;48.708;9.026;2023-04-03T01:40:35;3.87;;;3.37;;
15287;SDS011;7745;48.708;9.026;2023-04-03T01:43:03;4.23;;;3.23;;
15287;SDS011;7745;48.708;9.026;2023-04-03T01:45:30;4.63;;;3.30;;
15287;SDS011;7745;48.708;9.026;2023-04-03T01:47:57;3.57;;;3.20;;
15287;SDS011;7745;48.708;9.026;2023-04-03T01:50:25;3.70;;;3.40;;
15287;SDS011;7745;48.708;9.026;2023-04-03T01:52:52;4.33;;;3.20;;
15287;SDS011;7745;48.708;9.026;2023-04-03T01:55:19;3.53;;;3.10;;
15287;SDS011;7745;48.708;9.026;2023-04-03T01:57:45;4.20;;;3.30;;
15287;SDS011;7745;48.708;9.026;2023-04-03T02:00:13;5.83;;;3.60;;
15287;SDS011;7745;48.708;9.026;2023-04-03T02:02:40;3.83;;;3.43;;
15287;SDS011;7745;48.708;9.026;2023-04-03T02:05:07;4.07;;;3.33;;
15287;SDS011;7745;48.708;9.026;2023-04-03T02:07:36;5.83;;;3.37;;
15287;SDS011;7745;48.708;9.026;2023-04-03T02:10:03;3.93;;;3.50;;
15287;SDS011;7745;48.708;9.026;2023-04-03T02:12:30;4.20;;;3.20;;
15287;SDS011;7745;48.708;9.026;2023-04-03T02:14:57;3.57;;;3.10;;
15287;SDS011;7745;48.708;9.026;2023-04-03T02:17:24;3.90;;;3.33;;
15287;SDS011;7745;48.708;9.026;2023-04-03T02:19:51;3.90;;;2.97;;
15287;SDS011;7745;48.708;9.026;2023-04-03T02:22:18;4.20;;;3.43;;
15287;SDS011;7745;48.708;9.026;2023-04-03T02:24:46;4.00;;;3.33;;
15287;SDS011;7745;48.708;9.026;2023-04-03T02:27:13;5.27;;;3.37;;
15287;SDS011;7745;48.708;9.026;2023-04-03T02:29:41;4.23;;;3.50;;
15287;SDS011;7745;48.708;9.026;2023-04-03T02:32:07;4.33;;;3.27;;
15287;SDS011;7745;48.708;9.026;2023-04-03T02:34:34;4.43;;;3.57;;
15287;SDS011;7745;48.708;9.026;2023-04-03T02:37:01;4.67;;;3.60;;
15287;SDS011;7745;48.708;9.026;2023-04-03T02:39:28;5.33;;;3.33;;
15287;SDS011;7745;48.708;9.026;2023-04-03T02:41:56;4.20;;;3.37;;
15287;SDS011;7745;48.708;9.026;2023-04-03T02:44:23;3.67;;;3.10;;
15287;SDS011;7745;48.708;9.026;2023-04-03T02:46:50;4.23;;;3.33;;
15287;SDS011;7745;48.708;9.026;2023-04-03T02:49:17;4.83;;;3.27;;
15287;SDS011;7745;48.708;9.026;2023-04-03T02:51:44;6.00;;;3.20;;
15287;SDS011;7745;48.708;9.026;2023-04-03T02:54:11;4.30;;;3.53;;
15287;SDS011;7745;48.708;9.026;2023-04-03T02:56:38;3.53;;;3.10;;
15287;SDS011;7745;48.708;9.026;2023-04-03T02:59:06;5.30;;;3.23;;
15287;SDS011;7745;48.708;9.026;2023-04-03T03:01:33;3.83;;;3.30;;
15287;SDS011;7745;48.708;9.026;2023-04-03T03:04:00;5.67;;;3.63;;
15287;SDS011;7745;48.708;9.026;2023-04-03T03:06:27;5.57;;;3.40;;
15287;SDS011;7745;48.708;9.026;2023-04-03T03:08:54;5.03;;;3.23;;
15287;SDS011;7745;48.708;9.026;2023-04-03T03:11:21;4.50;;;3.57;;
15287;SDS011;7745;48.708;9.026;2023-04-03T03:13:48;3.93;;;3.30;;
15287;SDS011;7745;48.708;9.026;2023-04-03T03:16:16;3.70;;;3.33;;
15287;SDS011;7745;48.708;9.026;2023-04-03T03:18:44;5.20;;;3.50;;
15287;SDS011;7745;48.708;9.026;2023-04-03T03:21:10;3.70;;;3.30;;
15287;SDS011;7745;48.708;9.026;2023-04-03T03:23:38;4.57;;;3.17;;
15287;SDS011;7745;48.708;9.026;2023-04-03T03:26:06;4.17;;;3.20;;
15287;SDS011;7745;48.708;9.026;2023-04-03T03:28:34;3.57;;;3.23;;
15287;SDS011;7745;48.708;9.026;2023-04-03T03:31:02;4.30;;;3.80;;
15287;SDS011;7745;48.708;9.026;2023-04-03T03:33:31;5.10;;;3.60;;
15287;SDS011;7745;48.708;9.026;2023-04-03T03:35:59;4.03;;;3.63;;
15287;SDS011;7745;48.708;9.026;2023-04-03T03:38:26;3.60;;;3.30;;
15287;SDS011;7745;48.708;9.026;2023-04-03T03:40:53;5.60;;;3.50;;
15287;SDS011;7745;48.708;9.026;2023-04-03T03:43:20;4.10;;;3.70;;
15287;SDS011;7745;48.708;9.026;2023-04-03T03:45:49;5.13;;;3.30;;
15287;SDS011;7745;48.708;9.026;2023-04-03T03:48:17;3.47;;;3.17;;
15287;SDS011;7745;48.708;9.026;2023-04-03T03:50:46;4.77;;;3.10;;
15287;SDS011;7745;48.708;9.026;2023-04-03T03:53:12;3.63;;;3.07;;
15287;SDS011;7745;48.708;9.026;2023-04-03T03:55:39;4.50;;;3.30;;
15287;SDS011;7745;48.708;9.026;2023-04-03T03:58:07;3.50;;;3.20;;
15287;SDS011;7745;48.708;9.026;2023-04-03T04:00:34;5.27;;;3.10;;
15287;SDS011;7745;48.708;9.026;2023-04-03T04:03:01;3.03;;;2.70;;
15287;SDS011;7745;48.708;9.026;2023-04-03T04:05:28;4.30;;;3.00;;
15287;SDS011;7745;48.708;9.026;2023-04-03T04:07:56;3.63;;;3.17;;
15287;SDS011;7745;48.708;9.026;2023-04-03T04:10:23;5.50;;;3.30;;
15287;SDS011;7745;48.708;9.026;2023-04-03T04:12:50;7.47;;;3.30;;
15287;SDS011;7745;48.708;9.026;2023-04-03T04:15:17;4.60;;;3.20;;
15287;SDS011;7745;48.708;9.026;2023-04-03T04:17:46;4.10;;;2.97;;
15287;SDS011;7745;48.708;9.026;2023-04-03T04:20:13;4.37;;;3.10;;
15287;SDS011;7745;48.708;9.026;2023-04-03T04:22:43;4.07;;;2.83;;
15287;SDS011;7745;48.708;9.026;2023-04-03T04:25:11;4.17;;;3.00;;
15287;SDS011;7745;48.708;9.026;2023-04-03T04:27:39;4.50;;;3.50;;
15287;SDS011;7745;48.708;9.026;2023-04-03T04:30:06;4.63;;;3.13;;
15287;SDS011;7745;48.708;9.026;2023-04-03T04:32:33;5.10;;;3.13;;
15287;SDS011;7745;48.708;9.026;2023-04-03T04:35:00;5.83;;;3.40;;
15287;SDS011;7745;48.708;9.026;2023-04-03T04:37:27;6.20;;;3.27;;
15287;SDS011;7745;48.708;9.026;2023-04-03T04:39:54;3.17;;;2.87;;
15287;SDS011;7745;48.708;9.026;2023-04-03T04:42:23;4.37;;;2.90;;
15287;SDS011;7745;48.708;9.026;2023-04-03T04:44:50;3.20;;;2.90;;
15287;SDS011;7745;48.708;9.026;2023-04-03T04:47:17;3.67;;;3.27;;
15287;SDS011;7745;48.708;9.026;2023-04-03T04:49:44;3.43;;;3.13;;
15287;SDS011;7745;48.708;9.026;2023-04-03T04:52:12;4.17;;;3.43;;
15287;SDS011;7745;48.708;9.026;2023-04-03T04:54:39;4.73;;;3.30;;
15287;SDS011;7745;48.708;9.026;2023-04-03T04:57:06;3.27;;;2.90;;
15287;SDS011;7745;48.708;9.026;2023-04-03T04:59:34;3.70;;;3.33;;
15287;SDS011;7745;48.708;9.026;2023-04-03T05:02:01;4.53;;;3.00;;
15287;SDS011;7745;48.708;9.026;2023-04-03T05:04:40;3.77;;;3.33;;
15287;SDS011;7745;48.708;9.026;2023-04-03T05:07:07;3.53;;;3.20;;
15287;SDS011;7745;48.708;9.026;2023-04-03T05:09:37;5.60;;;2.77;;
15287;SDS011;7745;48.708;9.026;2023-04-03T05:12:12;4.33;;;3.40;;
15287;SDS011;7745;48.708;9.026;2023-04-03T05:14:45;3.77;;;2.73;;
15287;SDS011;7745;48.708;9.026;2023-04-03T05:17:12;4.37;;;2.80;;
15287;SDS011;7745;48.708;9.026;2023-04-03T05:19:47;2.90;;;2.50;;
15287;SDS011;7745;48.708;9.026;2023-04-03T05:22:17;3.70;;;2.37;;
15287;SDS011;7745;48.708;9.026;2023-04-03T05:24:51;3.83;;;2.60;;
15287;SDS011;7745;48.708;9.026;2023-04-03T05:27:34;2.73;;;2.33;;
15287;SDS011;7745;48.708;9.026;2023-04-03T05:32:53;3.67;;;2.77;;
15287;SDS011;7745;48.708;9.026;2023-04-03T05:35:20;2.80;;;2.23;;
15287;SDS011;7745;48.708;9.026;2023-04-03T05:37:50;2.70;;;2.27;;
15287;SDS011;7745;48.708;9.026;2023-04-03T05:40:22;2.90;;;2.00;;
15287;SDS011;7745;48.708;9.026;2023-04-03T05:42:52;3.30;;;2.10;;
15287;SDS011;7745;48.708;9.026;2023-04-03T05:45:28;5.00;;;2.27;;
15287;SDS011;7745;48.708;9.026;2023-04-03T05:47:56;3.77;;;2.63;;
15287;SDS011;7745;48.708;9.026;2023-04-03T05:50:22;3.07;;;2.27;;
15287;SDS011;7745;48.708;9.026;2023-04-03T05:52:50;3.43;;;2.47;;
15287;SDS011;7745;48.708;9.026;2023-04-03T05:55:18;2.97;;;2.20;;
15287;SDS011;7745;48.708;9.026;2023-04-03T05:57:45;2.97;;;2.10;;
15287;SDS011;7745;48.708;9.026;2023-04-03T06:00:13;3.57;;;2.03;;
15287;SDS011;7745;48.708;9.026;2023-04-03T06:02:43;3.90;;;2.40;;
15287;SDS011;7745;48.708;9.026;2023-04-03T06:05:10;3.03;;;2.37;;
15287;SDS011;7745;48.708;9.026;2023-04-03T06:07:38;6.43;;;2.40;;
15287;SDS011;7745;48.708;9.026;2023-04-03T06:10:10;3.77;;;2.03;;
15287;SDS011;7745;48.708;9.026;2023-04-03T06:12:40;3.77;;;2.53;;
15287;SDS011;7745;48.708;9.026;2023-04-03T06:15:39;2.50;;;2.30;;
15287;SDS011;7745;48.708;9.026;2023-04-03T06:18:16;5.97;;;2.80;;
15287;SDS011;7745;48.708;9.026;2023-04-03T06:20:49;4.13;;;2.43;;
15287;SDS011;7745;48.708;9.026;2023-04-03T06:23:28;3.00;;;2.70;;
15287;SDS011;7745;48.708;9.026;2023-04-03T06:25:55;3.30;;;3.00;;
15287;SDS011;7745;48.708;9.026;2023-04-03T06:28:36;3.03;;;2.77;;
15287;SDS011;7745;48.708;9.026;2023-04-03T06:34:20;5.30;;;2.60;;
15287;SDS011;7745;48.708;9.026;2023-04-03T06:43:11;4.67;;;3.00;;
15287;SDS011;7745;48.708;9.026;2023-04-03T06:49:40;4.80;;;2.50;;
15287;SDS011;7745;48.708;9.026;2023-04-03T06:52:42;3.83;;;2.50;;
15287;SDS011;7745;48.708;9.026;2023-04-03T06:55:15;2.60;;;2.40;;
15287;SDS011;7745;48.708;9.026;2023-04-03T06:57:42;4.20;;;2.53;;
15287;SDS011;7745;48.708;9.026;2023-04-03T07:00:10;4.40;;;2.83;;
15287;SDS011;7745;48.708;9.026;2023-04-03T07:02:38;2.57;;;2.30;;
15287;SDS011;7745;48.708;9.026;2023-04-03T07:05:06;3.47;;;2.77;;
15287;SDS011;7745;48.708;9.026;2023-04-03T07:07:34;4.53;;;2.60;;
15287;SDS011;7745;48.708;9.026;2023-04-03T07:10:00;3.27;;;2.67;;
15287;SDS011;7745;48.708;9.026;2023-04-03T07:12:27;2.83;;;2.50;;
15287;SDS011;7745;48.708;9.026;2023-04-03T07:14:58;2.73;;;2.40;;
15287;SDS011;7745;48.708;9.026;2023-04-03T07:17:26;2.90;;;2.60;;
15287;SDS011;7745;48.708;9.026;2023-04-03T07:19:53;3.93;;;2.90;;
15287;SDS011;7745;48.708;9.026;2023-04-03T07:22:23;4.33;;;2.80;;
15287;SDS011;7745;48.708;9.026;2023-04-03T07:24:50;3.37;;;2.70;;
15287;SDS011;7745;48.708;9.026;2023-04-03T07:27:17;5.73;;;2.83;;
15287;SDS011;7745;48.708;9.026;2023-04-03T07:29:44;4.37;;;2.93;;
15287;SDS011;7745;48.708;9.026;2023-04-03T07:32:13;5.07;;;2.70;;
15287;SDS011;7745;48.708;9.026;2023-04-03T07:34:40;4.77;;;2.73;;
15287;SDS011;7745;48.708;9.026;2023-04-03T07:37:08;5.00;;;2.60;;
15287;SDS011;7745;48.708;9.026;2023-04-03T07:39:38;4.03;;;2.50;;
15287;SDS011;7745;48.708;9.026;2023-04-03T07:42:05;3.63;;;2.57;;
15287;SDS011;7745;48.708;9.026;2023-04-03T07:44:33;2.90;;;2.43;;
15287;SDS011;7745;48.708;9.026;2023-04-03T07:47:00;4.53;;;2.43;;
15287;SDS011;7745;48.708;9.026;2023-04-03T07:49:27;3.43;;;2.60;;
15287;SDS011;7745;48.708;9.026;2023-04-03T07:51:55;4.20;;;2.50;;
15287;SDS011;7745;48.708;9.026;2023-04-03T07:54:23;3.97;;;2.60;;
15287;SDS011;7745;48.708;9.026;2023-04-03T07:56:52;4.10;;;2.80;;
15287;SDS011;7745;48.708;9.026;2023-04-03T07:59:19;4.60;;;2.87;;
15287;SDS011;7745;48.708;9.026;2023-04-03T08:01:46;2.67;;;2.20;;
15287;SDS011;7745;48.708;9.026;2023-04-03T08:04:13;3.20;;;2.67;;
15287;SDS011;7745;48.708;9.026;2023-04-03T08:06:40;3.83;;;2.53;;
15287;SDS011;7745;48.708;9.026;2023-04-03T08:09:07;3.67;;;2.50;;
15287;SDS011;7745;48.708;9.026;2023-04-03T08:11:35;4.67;;;3.00;;
15287;SDS011;7745;48.708;9.026;2023-04-03T08:14:09;3.10;;;2.67;;
15287;SDS011;7745;48.708;9.026;2023-04-03T08:16:43;4.13;;;2.67;;
15287;SDS011;7745;48.708;9.026;2023-04-03T08:19:13;3.33;;;2.57;;
15287;SDS011;7745;48.708;9.026;2023-04-03T08:21:42;3.50;;;2.90;;
15287;SDS011;7745;48.708;9.026;2023-04-03T08:24:10;4.67;;;2.73;;
15287;SDS011;7745;48.708;9.026;2023-04-03T08:26:37;5.80;;;3.07;;
15287;SDS011;7745;48.708;9.026;2023-04-03T08:29:05;5.20;;;3.07;;
15287;SDS011;7745;48.708;9.026;2023-04-03T08:31:33;3.63;;;2.67;;
15287;SDS011;7745;48.708;9.026;2023-04-03T08:34:00;5.47;;;2.47;;
15287;SDS011;7745;48.708;9.026;2023-04-03T08:36:28;3.13;;;2.53;;
15287;SDS011;7745;48.708;9.026;2023-04-03T08:38:56;3.90;;;2.10;;
15287;SDS011;7745;48.708;9.026;2023-04-03T08:41:26;4.77;;;2.50;;
15287;SDS011;7745;48.708;9.026;2023-04-03T08:44:00;3.93;;;2.67;;
15287;SDS011;7745;48.708;9.026;2023-04-03T08:46:46;4.87;;;3.00;;
15287;SDS011;7745;48.708;9.026;2023-04-03T08:49:23;8.33;;;2.97;;
15287;SDS011;7745;48.708;9.026;2023-04-03T08:51:53;2.83;;;2.53;;
15287;SDS011;7745;48.708;9.026;2023-04-03T08:54:24;7.00;;;2.77;;
15287;SDS011;7745;48.708;9.026;2023-04-03T08:56:56;3.50;;;2.53;;
15287;SDS011;7745;48.708;9.026;2023-04-03T08:59:26;3.77;;;2.80;;
15287;SDS011;7745;48.708;9.026;2023-04-03T09:01:57;5.00;;;2.67;;
15287;SDS011;7745;48.708;9.026;2023-04-03T09:04:29;3.70;;;3.00;;
15287;SDS011;7745;48.708;9.026;2023-04-03T09:06:59;3.30;;;2.73;;
15287;SDS011;7745;48.708;9.026;2023-04-03T09:09:32;5.23;;;2.77;;
15287;SDS011;7745;48.708;9.026;2023-04-03T09:12:04;4.23;;;2.60;;
15287;SDS011;7745;48.708;9.026;2023-04-03T09:14:40;6.43;;;2.73;;
15287;SDS011;7745;48.708;9.026;2023-04-03T09:17:14;4.07;;;2.77;;
15287;SDS011;7745;48.708;9.026;2023-04-03T09:19:48;4.30;;;2.40;;
15287;SDS011;7745;48.708;9.026;2023-04-03T09:22:21;4.97;;;2.63;;
15287;SDS011;7745;48.708;9.026;2023-04-03T09:24:52;3.50;;;2.57;;
15287;SDS011;7745;48.708;9.026;2023-04-03T09:27:26;4.93;;;3.30;;
15287;SDS011;7745;48.708;9.026;2023-04-03T09:29:53;3.00;;;2.70;;
15287;SDS011;7745;48.708;9.026;2023-04-03T09:32:25;3.73;;;2.40;;
15287;SDS011;7745;48.708;9.026;2023-04-03T09:34:53;4.50;;;2.77;;
15287;SDS011;7745;48.708;9.026;2023-04-03T09:37:33;3.80;;;2.80;;
15287;SDS011;7745;48.708;9.026;2023-04-03T09:40:11;4.47;;;2.60;;
15287;SDS011;7745;48.708;9.026;2023-04-03T09:42:56;4.23;;;2.63;;
15287;SDS011;7745;48.708;9.026;2023-04-03T09:45:28;4.57;;;2.57;;
15287;SDS011;7745;48.708;9.026;2023-04-03T09:48:13;3.13;;;2.30;;
15287;SDS011;7745;48.708;9.026;2023-04-03T09:50:58;3.57;;;2.60;;
15287;SDS011;7745;48.708;9.026;2023-04-03T09:53:30;3.53;;;2.20;;
15287;SDS011;7745;48.708;9.026;2023-04-03T09:56:00;4.67;;;2.30;;
15287;SDS011;7745;48.708;9.026;2023-04-03T09:58:30;3.33;;;2.20;;
15287;SDS011;7745;48.708;9.026;2023-04-03T10:01:00;2.53;;;2.20;;
15287;SDS011;7745;48.708;9.026;2023-04-03T10:03:39;2.70;;;2.20;;
15287;SDS011;7745;48.708;9.026;2023-04-03T10:06:21;5.97;;;2.57;;
15287;SDS011;7745;48.708;9.026;2023-04-03T10:08:58;3.47;;;2.27;;
15287;SDS011;7745;48.708;9.026;2023-04-03T10:11:26;4.30;;;2.60;;
15287;SDS011;7745;48.708;9.026;2023-04-03T10:13:54;2.87;;;2.50;;
15287;SDS011;7745;48.708;9.026;2023-04-03T10:16:25;4.70;;;2.87;;
15287;SDS011;7745;48.708;9.026;2023-04-03T10:18:59;3.33;;;2.07;;
15287;SDS011;7745;48.708;9.026;2023-04-03T10:21:58;3.17;;;2.30;;
15287;SDS011;7745;48.708;9.026;2023-04-03T10:24:31;4.77;;;2.57;;
15287;SDS011;7745;48.708;9.026;2023-04-03T10:27:18;3.33;;;2.53;;
15287;SDS011;7745;48.708;9.026;2023-04-03T10:29:55;2.63;;;2.10;;
15287;SDS011;7745;48.708;9.026;2023-04-03T10:32:43;4.33;;;2.30;;
15287;SDS011;7745;48.708;9.026;2023-04-03T10:35:18;2.93;;;2.10;;
15287;SDS011;7745;48.708;9.026;2023-04-03T10:37:57;5.43;;;2.40;;
15287;SDS011;7745;48.708;9.026;2023-04-03T10:40:31;3.57;;;2.27;;
15287;SDS011;7745;48.708;9.026;2023-04-03T10:43:06;3.33;;;2.10;;
15287;SDS011;7745;48.708;9.026;2023-04-03T10:45:45;5.23;;;2.50;;
15287;SDS011;7745;48.708;9.026;2023-04-03T10:48:20;3.67;;;2.10;;
15287;SDS011;7745;48.708;9.026;2023-04-03T10:51:05;2.40;;;2.17;;
15287;SDS011;7745;48.708;9.026;2023-04-03T10:53:41;5.07;;;2.50;;
15287;SDS011;7745;48.708;9.026;2023-04-03T10:56:15;3.37;;;2.20;;
15287;SDS011;7745;48.708;9.026;2023-04-03T10:58:48;4.10;;;1.93;;
15287;SDS011;7745;48.708;9.026;2023-04-03T11:01:21;3.80;;;2.33;;
15287;SDS011;7745;48.708;9.026;2023-04-03T11:03:54;3.53;;;2.03;;
15287;SDS011;7745;48.708;9.026;2023-04-03T11:06:26;2.90;;;2.10;;
15287;SDS011;7745;48.708;9.026;2023-04-03T11:09:02;4.50;;;2.47;;
15287;SDS011;7745;48.708;9.026;2023-04-03T11:11:37;3.33;;;2.50;;
15287;SDS011;7745;48.708;9.026;2023-04-03T11:14:09;4.40;;;2.50;;
15287;SDS011;7745;48.708;9.026;2023-04-03T11:16:42;5.40;;;2.50;;
15287;SDS011;7745;48.708;9.026;2023-04-03T11:19:14;4.90;;;2.20;;
15287;SDS011;7745;48.708;9.026;2023-04-03T11:21:51;4.50;;;2.20;;
15287;SDS011;7745;48.708;9.026;2023-04-03T11:24:22;5.80;;;2.87;;
15287;SDS011;7745;48.708;9.026;2023-04-03T11:26:51;4.63;;;2.20;;
15287;SDS011;7745;48.708;9.026;2023-04-03T11:29:20;4.57;;;2.17;;
15287;SDS011;7745;48.708;9.026;2023-04-03T11:34:53;3.40;;;2.20;;
15287;SDS011;7745;48.708;9.026;2023-04-03T11:37:26;3.37;;;2.03;;
15287;SDS011;7745;48.708;9.026;2023-04-03T11:40:02;3.73;;;2.23;;
15287;SDS011;7745;48.708;9.026;2023-04-03T11:42:34;4.50;;;2.03;;
15287;SDS011;7745;48.708;9.026;2023-04-03T11:45:16;3.60;;;1.67;;
15287;SDS011;7745;48.708;9.026;2023-04-03T11:48:05;4.10;;;1.77;;
15287;SDS011;7745;48.708;9.026;2023-04-03T11:50:47;3.03;;;1.70;;
15287;SDS011;7745;48.708;9.026;2023-04-03T11:53:29;2.57;;;1.50;;
15287;SDS011;7745;48.708;9.026;2023-04-03T11:56:01;3.93;;;1.80;;
15287;SDS011;7745;48.708;9.026;2023-04-03T11:58:31;3.40;;;1.70;;
15287;SDS011;7745;48.708;9.026;2023-04-03T12:01:00;3.10;;;1.73;;
15287;SDS011;7745;48.708;9.026;2023-04-03T12:09:35;3.77;;;1.70;;
15287;SDS011;7745;48.708;9.026;2023-04-03T12:12:34;4.23;;;1.97;;
15287;SDS011;7745;48.708;9.026;2023-04-03T12:15:17;3.77;;;2.17;;
15287;SDS011;7745;48.708;9.026;2023-04-03T12:18:00;3.97;;;1.60;;
15287;SDS011;7745;48.708;9.026;2023-04-03T12:21:11;3.00;;;1.60;;
15287;SDS011;7745;48.708;9.026;2023-04-03T12:29:17;2.20;;;1.70;;
15287;SDS011;7745;48.708;9.026;2023-04-03T12:31:50;3.00;;;1.83;;
15287;SDS011;7745;48.708;9.026;2023-04-03T12:34:27;4.40;;;1.90;;
15287;SDS011;7745;48.708;9.026;2023-04-03T12:37:08;3.00;;;1.50;;
15287;SDS011;7745;48.708;9.026;2023-04-03T12:39:52;3.67;;;1.60;;
15287;SDS011;7745;48.708;9.026;2023-04-03T12:42:38;4.73;;;1.70;;
15287;SDS011;7745;48.708;9.026;2023-04-03T12:45:26;2.80;;;1.77;;
15287;SDS011;7745;48.708;9.026;2023-04-03T12:47:54;2.37;;;1.73;;
15287;SDS011;7745;48.708;9.026;2023-04-03T12:50:22;2.70;;;1.70;;
15287;SDS011;7745;48.708;9.026;2023-04-03T12:52:56;2.83;;;1.67;;
15287;SDS011;7745;48.708;9.026;2023-04-03T12:55:26;4.07;;;1.80;;
15287;SDS011;7745;48.708;9.026;2023-04-03T12:57:54;3.10;;;1.67;;
15287;SDS011;7745;48.708;9.026;2023-04-03T13:00:25;3.00;;;1.60;;
15287;SDS011;7745;48.708;9.026;2023-04-03T13:02:59;4.47;;;1.70;;
15287;SDS011;7745;48.708;9.026;2023-04-03T13:05:27;2.40;;;2.10;;
15287;SDS011;7745;48.708;9.026;2023-04-03T13:07:56;2.70;;;1.70;;
15287;SDS011;7745;48.708;9.026;2023-04-03T13:10:26;3.93;;;1.90;;
15287;SDS011;7745;48.708;9.026;2023-04-03T13:12:55;2.20;;;1.80;;
15287;SDS011;7745;48.708;9.026;2023-04-03T13:15:24;2.53;;;2.03;;
15287;SDS011;7745;48.708;9.026;2023-04-03T13:17:54;2.23;;;1.57;;
15287;SDS011;7745;48.708;9.026;2023-04-03T13:20:23;2.47;;;1.60;;
15287;SDS011;7745;48.708;9.026;2023-04-03T13:22:56;2.97;;;1.83;;
15287;SDS011;7745;48.708;9.026;2023-04-03T13:25:26;3.47;;;2.10;;
15287;SDS011;7745;48.708;9.026;2023-04-03T13:27:57;5.27;;;1.97;;
15287;SDS011;7745;48.708;9.026;2023-04-03T13:30:26;3.47;;;1.83;;
15287;SDS011;7745;48.708;9.026;2023-04-03T13:32:55;3.13;;;2.00;;
15287;SDS011;7745;48.708;9.026;2023-04-03T13:35:30;4.87;;;2.07;;
15287;SDS011;7745;48.708;9.026;2023-04-03T13:38:01;2.43;;;1.70;;
15287;SDS011;7745;48.708;9.026;2023-04-03T13:40:30;3.80;;;1.83;;
15287;SDS011;7745;48.708;9.026;2023-04-03T13:43:04;1.97;;;1.50;;
15287;SDS011;7745;48.708;9.026;2023-04-03T13:45:40;2.63;;;1.70;;
15287;SDS011;7745;48.708;9.026;2023-04-03T13:48:21;2.77;;;1.80;;
15287;SDS011;7745;48.708;9.026;2023-04-03T13:50:57;2.03;;;1.83;;
15287;SDS011;7745;48.708;9.026;2023-04-03T13:53:26;4.73;;;1.80;;
15287;SDS011;7745;48.708;9.026;2023-04-03T13:55:56;2.30;;;1.70;;
15287;SDS011;7745;48.708;9.026;2023-04-03T13:58:27;4.27;;;2.07;;
15287;SDS011;7745;48.708;9.026;2023-04-03T14:00:55;4.23;;;1.80;;
15287;SDS011;7745;48.708;9.026;2023-04-03T14:03:28;3.37;;;2.10;;
15287;SDS011;7745;48.708;9.026;2023-04-03T14:05:57;4.03;;;2.20;;
15287;SDS011;7745;48.708;9.026;2023-04-03T14:08:26;5.57;;;2.07;;
15287;SDS011;7745;48.708;9.026;2023-04-03T14:10:53;2.10;;;1.73;;
15287;SDS011;7745;48.708;9.026;2023-04-03T14:13:20;2.87;;;1.80;;
15287;SDS011;7745;48.708;9.026;2023-04-03T14:15:49;4.37;;;1.87;;
15287;SDS011;7745;48.708;9.026;2023-04-03T14:18:18;2.13;;;1.60;;
15287;SDS011;7745;48.708;9.026;2023-04-03T14:20:46;4.53;;;2.00;;
15287;SDS011;7745;48.708;9.026;2023-04-03T14:23:13;1.70;;;1.60;;
15287;SDS011;7745;48.708;9.026;2023-04-03T14:25:40;3.60;;;1.93;;
15287;SDS011;7745;48.708;9.026;2023-04-03T14:28:12;2.90;;;1.53;;
15287;SDS011;7745;48.708;9.026;2023-04-03T14:30:42;2.70;;;1.80;;
15287;SDS011;7745;48.708;9.026;2023-04-03T14:33:11;3.10;;;1.70;;
15287;SDS011;7745;48.708;9.026;2023-04-03T14:35:41;2.70;;;1.90;;
15287;SDS011;7745;48.708;9.026;2023-04-03T14:38:12;2.00;;;1.57;;
15287;SDS011;7745;48.708;9.026;2023-04-03T14:40:49;1.87;;;1.70;;
15287;SDS011;7745;48.708;9.026;2023-04-03T14:43:16;3.27;;;1.90;;
15287;SDS011;7745;48.708;9.026;2023-04-03T14:45:43;3.17;;;1.90;;
15287;SDS011;7745;48.708;9.026;2023-04-03T14:48:12;2.80;;;1.70;;
15287;SDS011;7745;48.708;9.026;2023-04-03T14:50:44;2.53;;;1.90;;
15287;SDS011;7745;48.708;9.026;2023-04-03T14:53:11;2.33;;;1.70;;
15287;SDS011;7745;48.708;9.026;2023-04-03T14:55:39;3.57;;;2.10;;
15287;SDS011;7745;48.708;9.026;2023-04-03T14:58:08;2.73;;;1.70;;
15287;SDS011;7745;48.708;9.026;2023-04-03T15:00:38;3.30;;;2.00;;
15287;SDS011;7745;48.708;9.026;2023-04-03T15:03:05;2.97;;;2.13;;
15287;SDS011;7745;48.708;9.026;2023-04-03T15:05:33;3.37;;;2.40;;
15287;SDS011;7745;48.708;9.026;2023-04-03T15:08:02;3.60;;;2.17;;
15287;SDS011;7745;48.708;9.026;2023-04-03T15:10:29;3.80;;;2.17;;
15287;SDS011;7745;48.708;9.026;2023-04-03T15:12:57;2.47;;;1.87;;
15287;SDS011;7745;48.708;9.026;2023-04-03T15:15:27;3.50;;;2.20;;
15287;SDS011;7745;48.708;9.026;2023-04-03T15:17:56;3.67;;;2.83;;
15287;SDS011;7745;48.708;9.026;2023-04-03T15:20:29;3.03;;;2.17;;
15287;SDS011;7745;48.708;9.026;2023-04-03T15:22:59;2.00;;;1.80;;
15287;SDS011;7745;48.708;9.026;2023-04-03T15:25:27;3.27;;;1.70;;
15287;SDS011;7745;48.708;9.026;2023-04-03T15:27:54;3.67;;;2.03;;
15287;SDS011;7745;48.708;9.026;2023-04-03T15:30:22;4.20;;;2.20;;
15287;SDS011;7745;48.708;9.026;2023-04-03T15:32:49;3.20;;;2.00;;
15287;SDS011;7745;48.708;9.026;2023-04-03T15:35:16;3.97;;;1.97;;
15287;SDS011;7745;48.708;9.026;2023-04-03T15:37:43;3.00;;;2.10;;
15287;SDS011;7745;48.708;9.026;2023-04-03T15:40:11;2.23;;;1.97;;
15287;SDS011;7745;48.708;9.026;2023-04-03T15:42:39;4.47;;;1.60;;
15287;SDS011;7745;48.708;9.026;2023-04-03T15:45:06;3.87;;;2.10;;
15287;SDS011;7745;48.708;9.026;2023-04-03T15:47:34;2.67;;;1.57;;
15287;SDS011;7745;48.708;9.026;2023-04-03T15:50:33;5.03;;;2.30;;
15287;SDS011;7745;48.708;9.026;2023-04-03T15:53:01;3.97;;;1.97;;